Time;durP1;ratioP1;P1;durP2;ratioP2;P2;SDS_P1;SDS_P2;PMS_P1;PMS_P2;Temp;Humidity;BMP_temperature;BMP_pressure;BME280_temperature;BME280_humidity;BME280_pressure;Samples;Min_cycle;Max_cycle;Signal;HPM_P1;HPM_P2
2020/12/07 00:01:00;;;;;;;;;;;26.90;39.20;;;;;;5097716;28;19922;-56
2020/12/07 00:03:25;;;;;;;;;;;26.90;39.10;;;;;;5099334;28;19908;-57
2020/12/07 00:05:51;;;;;;;;;;;26.90;39.10;;;;;;5085504;28;19956;-53
2020/12/07 00:08:16;;;;;;;;;;;26.90;39.00;;;;;;5078925;28;20293;-54
2020/12/07 00:10:42;;;;;;;;;;;27.00;38.90;;;;;;5078863;28;20046;-54
2020/12/07 00:13:07;;;;;;;;;;;26.90;38.90;;;;;;5092146;28;19943;-54
2020/12/07 00:15:33;;;;;;;;;;;26.90;39.00;;;;;;5096192;28;19912;-54
2020/12/07 00:18:01;;;;;;;;;;;26.90;38.90;;;;;;5085284;28;20370;-56
2020/12/07 00:20:26;;;;;;;;;;;26.90;38.90;;;;;;5078901;28;20392;-53
2020/12/07 00:22:52;;;;;;;;;;;26.90;38.90;;;;;;5090142;28;19912;-54
2020/12/07 00:25:17;;;;;;;;;;;26.90;38.90;;;;;;5096614;28;19938;-56
2020/12/07 00:27:43;;;;;;;;;;;26.90;38.80;;;;;;5085673;28;20424;-57
2020/12/07 00:30:08;;;;;;;;;;;26.90;38.80;;;;;;5075954;28;19994;-55
2020/12/07 00:32:34;;;;;;;;;;;26.90;38.80;;;;;;5090752;28;20354;-52
2020/12/07 00:34:59;;;;;;;;;;;26.80;37.40;;;;;;5087480;28;19916;-56
2020/12/07 00:37:25;;;;;;;;;;;26.50;37.90;;;;;;5104395;28;20445;-65
2020/12/07 00:39:50;;;;;;;;;;;26.60;38.30;;;;;;5097637;28;19923;-59
2020/12/07 00:42:16;;;;;;;;;;;26.70;38.10;;;;;;5088962;28;20494;-59
2020/12/07 00:44:41;;;;;;;;;;;26.80;37.90;;;;;;5107975;28;19937;-58
2020/12/07 00:47:07;;;;;;;;;;;27.00;37.70;;;;;;5095765;28;20282;-59
2020/12/07 00:49:33;;;;;;;;;;;27.10;37.60;;;;;;5093622;28;20278;-58
2020/12/07 00:51:58;;;;;;;;;;;27.20;37.50;;;;;;5091501;28;19926;-59
2020/12/07 00:54:24;;;;;;;;;;;27.30;37.50;;;;;;5115739;28;19908;-61
2020/12/07 00:56:53;;;;;;;;;;;27.30;37.50;;;;;;5111825;28;19920;-60
2020/12/07 00:59:19;;;;;;;;;;;27.30;37.40;;;;;;5095542;28;19909;-57
2020/12/07 01:01:44;;;;;;;;;;;27.40;37.50;;;;;;5093390;28;20270;-60
2020/12/07 01:04:10;;;;;;;;;;;27.30;37.60;;;;;;5095539;28;19973;-57
2020/12/07 01:06:35;;;;;;;;;;;27.40;37.50;;;;;;5093399;28;19970;-56
2020/12/07 01:09:00;;;;;;;;;;;27.40;37.50;;;;;;5098248;28;20045;-56
2020/12/07 01:11:26;;;;;;;;;;;27.40;37.60;;;;;;5095003;28;20010;-55
2020/12/07 01:13:51;;;;;;;;;;;27.40;37.60;;;;;;5094972;28;19908;-57
2020/12/07 01:16:18;;;;;;;;;;;27.40;37.60;;;;;;5078912;28;19917;-55
2020/12/07 01:18:43;;;;;;;;;;;27.50;37.60;;;;;;5095017;28;20262;-56
2020/12/07 01:21:09;;;;;;;;;;;27.40;37.60;;;;;;5094922;28;19915;-55
2020/12/07 01:23:34;;;;;;;;;;;27.40;37.70;;;;;;5076954;28;19919;-57
2020/12/07 01:26:00;;;;;;;;;;;27.40;37.70;;;;;;5074834;28;19915;-57
2020/12/07 01:28:25;;;;;;;;;;;27.40;37.80;;;;;;5090573;28;19978;-57
2020/12/07 01:30:51;;;;;;;;;;;27.40;37.70;;;;;;5093656;28;19916;-60
2020/12/07 01:33:16;;;;;;;;;;;27.50;37.60;;;;;;5094820;28;20019;-59
2020/12/07 01:35:42;;;;;;;;;;;27.50;37.70;;;;;;5083961;28;19916;-60
2020/12/07 01:38:07;;;;;;;;;;;27.50;37.50;;;;;;5074096;28;19916;-63
2020/12/07 01:40:33;;;;;;;;;;;27.50;37.70;;;;;;5076584;28;19948;-61
2020/12/07 01:42:58;;;;;;;;;;;27.50;37.70;;;;;;5092743;28;19911;-51
2020/12/07 01:45:24;;;;;;;;;;;27.50;37.50;;;;;;5100027;28;20019;-61
2020/12/07 01:47:49;;;;;;;;;;;27.50;37.90;;;;;;5083335;28;19912;-57
2020/12/07 01:50:14;;;;;;;;;;;27.50;37.90;;;;;;5091228;28;20429;-59
2020/12/07 01:52:40;;;;;;;;;;;27.50;37.90;;;;;;5094078;28;19916;-62
2020/12/07 01:55:06;;;;;;;;;;;27.50;37.90;;;;;;5094231;28;20297;-52
2020/12/07 01:57:31;;;;;;;;;;;27.50;37.70;;;;;;5092297;28;19955;-55
2020/12/07 01:59:57;;;;;;;;;;;27.50;37.80;;;;;;5094202;28;20032;-55
2020/12/07 02:02:22;;;;;;;;;;;27.50;37.70;;;;;;5092325;28;19960;-58
2020/12/07 02:04:47;;;;;;;;;;;27.50;37.70;;;;;;5086480;28;19966;-58
2020/12/07 02:07:19;;;;;;;;;;;27.50;37.70;;;;;;5073480;28;19920;-59
2020/12/07 02:09:44;;;;;;;;;;;27.50;37.70;;;;;;5086578;28;20028;-54
2020/12/07 02:12:10;;;;;;;;;;;27.50;37.70;;;;;;5088446;28;19950;-59
2020/12/07 02:14:35;;;;;;;;;;;27.50;37.60;;;;;;5075879;28;19909;-58
2020/12/07 02:17:00;;;;;;;;;;;27.50;37.90;;;;;;5083178;28;19919;-57
2020/12/07 02:19:26;;;;;;;;;;;27.50;37.80;;;;;;5093888;28;20285;-59
2020/12/07 02:21:51;;;;;;;;;;;27.50;37.70;;;;;;5090477;28;19920;-58
2020/12/07 02:24:17;;;;;;;;;;;27.50;37.70;;;;;;5073757;28;20366;-53
2020/12/07 02:26:42;;;;;;;;;;;27.50;38.00;;;;;;5075285;28;19997;-55
2020/12/07 02:29:08;;;;;;;;;;;27.50;38.10;;;;;;5093900;28;19923;-55
2020/12/07 02:31:33;;;;;;;;;;;27.50;37.90;;;;;;5087193;28;20038;-55
2020/12/07 02:33:59;;;;;;;;;;;27.50;37.80;;;;;;5091271;28;20000;-61
2020/12/07 02:36:24;;;;;;;;;;;27.50;37.60;;;;;;5073243;28;19916;-61
2020/12/07 02:38:50;;;;;;;;;;;27.60;37.70;;;;;;5080742;28;20026;-62
2020/12/07 02:41:15;;;;;;;;;;;27.60;37.80;;;;;;5093382;28;19916;-61
2020/12/07 02:43:41;;;;;;;;;;;27.60;37.70;;;;;;5099699;28;19994;-62
2020/12/07 02:46:06;;;;;;;;;;;27.50;38.00;;;;;;5098193;28;20296;-57
2020/12/07 02:48:31;;;;;;;;;;;27.40;38.20;;;;;;5084764;28;19960;-62
2020/12/07 02:50:57;;;;;;;;;;;27.30;38.20;;;;;;5073297;28;20282;-63
2020/12/07 02:53:22;;;;;;;;;;;27.40;38.10;;;;;;5073215;28;19912;-61
2020/12/07 02:55:48;;;;;;;;;;;27.50;37.70;;;;;;5073268;28;19916;-67
2020/12/07 02:58:13;;;;;;;;;;;27.50;37.60;;;;;;5073141;28;19923;-62
2020/12/07 03:00:39;;;;;;;;;;;27.60;37.60;;;;;;5076533;28;19959;-62
2020/12/07 03:03:04;;;;;;;;;;;27.60;37.70;;;;;;5088707;28;19957;-62
2020/12/07 03:05:30;;;;;;;;;;;27.60;37.70;;;;;;5090214;28;19919;-63
2020/12/07 03:07:55;;;;;;;;;;;27.60;37.80;;;;;;5089564;28;20352;-64
2020/12/07 03:10:21;;;;;;;;;;;27.60;37.80;;;;;;5073070;28;19908;-63
2020/12/07 03:12:46;;;;;;;;;;;27.60;37.70;;;;;;5073750;28;19921;-64
2020/12/07 03:15:12;;;;;;;;;;;27.60;37.60;;;;;;5073126;28;19917;-63
2020/12/07 03:17:37;;;;;;;;;;;27.60;37.70;;;;;;5080801;28;19957;-65
2020/12/07 03:20:02;;;;;;;;;;;27.60;37.40;;;;;;5087998;28;19912;-50
2020/12/07 03:22:28;;;;;;;;;;;27.60;37.40;;;;;;5072665;28;19921;-57
2020/12/07 03:24:53;;;;;;;;;;;27.60;37.50;;;;;;5072929;28;19927;-65
2020/12/07 03:27:19;;;;;;;;;;;27.60;37.70;;;;;;5079630;28;20435;-62
2020/12/07 03:29:44;;;;;;;;;;;27.60;37.80;;;;;;5092856;28;19915;-49
2020/12/07 03:32:10;;;;;;;;;;;27.60;37.70;;;;;;5081269;28;19927;-56
2020/12/07 03:34:35;;;;;;;;;;;27.50;37.80;;;;;;5085289;28;19962;-50
2020/12/07 03:37:01;;;;;;;;;;;27.50;37.90;;;;;;5072806;28;19959;-52
2020/12/07 03:39:26;;;;;;;;;;;27.60;37.90;;;;;;5087614;28;20423;-54
2020/12/07 03:41:52;;;;;;;;;;;27.50;37.90;;;;;;5077135;28;19912;-49
2020/12/07 03:44:17;;;;;;;;;;;27.60;37.70;;;;;;5094232;28;20485;-51
2020/12/07 03:46:43;;;;;;;;;;;27.50;38.10;;;;;;5092811;28;19917;-51
2020/12/07 03:49:08;;;;;;;;;;;27.40;38.30;;;;;;5077760;28;20378;-51
2020/12/07 03:51:34;;;;;;;;;;;27.30;38.60;;;;;;5073922;28;19924;-54
2020/12/07 03:53:59;;;;;;;;;;;27.30;38.30;;;;;;5092527;28;19918;-54
2020/12/07 03:56:25;;;;;;;;;;;27.50;38.20;;;;;;5092906;28;19919;-55
2020/12/07 03:58:50;;;;;;;;;;;27.50;38.00;;;;;;5081545;28;19958;-52
2020/12/07 04:01:15;;;;;;;;;;;27.60;37.80;;;;;;5074444;28;19915;-52
2020/12/07 04:03:44;;;;;;;;;;;27.60;38.10;;;;;;5084227;28;19912;-49
2020/12/07 04:06:17;;;;;;;;;;;27.50;38.30;;;;;;5079155;28;19947;-52
2020/12/07 04:08:43;;;;;;;;;;;27.40;38.50;;;;;;5085488;28;19942;-50
2020/12/07 04:11:08;;;;;;;;;;;27.10;39.00;;;;;;5096276;28;19911;-50
2020/12/07 04:13:34;;;;;;;;;;;27.00;39.30;;;;;;5078503;28;19931;-50
2020/12/07 04:16:01;;;;;;;;;;;27.00;39.30;;;;;;5075923;28;19999;-50
2020/12/07 04:18:27;;;;;;;;;;;26.90;39.20;;;;;;5077279;28;19941;-50
2020/12/07 04:20:52;;;;;;;;;;;27.00;39.30;;;;;;5084779;28;19919;-50
2020/12/07 04:23:18;;;;;;;;;;;27.00;39.20;;;;;;5093105;28;20297;-50
2020/12/07 04:25:43;;;;;;;;;;;27.00;39.20;;;;;;5096311;28;19959;-50
2020/12/07 04:28:09;;;;;;;;;;;26.90;39.20;;;;;;5082159;28;20110;-49
2020/12/07 04:30:37;;;;;;;;;;;26.90;39.30;;;;;;5077063;28;20658;-50
2020/12/07 04:33:02;;;;;;;;;;;26.90;39.20;;;;;;5079772;28;20290;-49
2020/12/07 04:35:28;;;;;;;;;;;26.90;39.20;;;;;;5095719;28;19908;-50
2020/12/07 04:37:53;;;;;;;;;;;26.90;39.20;;;;;;5093889;28;19908;-49
2020/12/07 04:40:19;;;;;;;;;;;26.90;39.20;;;;;;5093325;28;19912;-50
2020/12/07 04:42:44;;;;;;;;;;;26.90;39.20;;;;;;5086700;28;19913;-51
2020/12/07 04:45:10;;;;;;;;;;;26.90;39.20;;;;;;5075646;28;19912;-50
2020/12/07 04:47:37;;;;;;;;;;;26.90;39.20;;;;;;5084790;28;19916;-50
2020/12/07 04:50:04;;;;;;;;;;;26.90;39.20;;;;;;5095516;28;19912;-51
2020/12/07 04:52:29;;;;;;;;;;;26.90;39.40;;;;;;5084791;28;19924;-50
2020/12/07 04:54:55;;;;;;;;;;;26.90;39.30;;;;;;5079206;28;19919;-50
2020/12/07 04:57:20;;;;;;;;;;;26.90;39.30;;;;;;5086826;28;19922;-49
2020/12/07 04:59:46;;;;;;;;;;;26.90;39.40;;;;;;5073941;28;19936;-50
2020/12/07 05:02:11;;;;;;;;;;;26.80;39.40;;;;;;5091378;28;19912;-51
2020/12/07 05:04:37;;;;;;;;;;;26.70;39.40;;;;;;5094295;28;19908;-50
2020/12/07 05:07:03;;;;;;;;;;;26.70;39.60;;;;;;5090281;28;20354;-50
2020/12/07 05:09:29;;;;;;;;;;;26.70;39.60;;;;;;5079946;28;19924;-51
2020/12/07 05:11:57;;;;;;;;;;;26.60;39.60;;;;;;5074448;28;19961;-50
2020/12/07 05:14:22;;;;;;;;;;;26.60;40.20;;;;;;5095387;28;19958;-50
2020/12/07 05:16:48;;;;;;;;;;;26.60;39.60;;;;;;5092119;28;20398;-50
2020/12/07 05:19:14;;;;;;;;;;;26.60;39.60;;;;;;5075090;28;19908;-49
2020/12/07 05:21:40;;;;;;;;;;;26.60;39.60;;;;;;5076075;28;19908;-50
2020/12/07 05:24:05;;;;;;;;;;;26.60;39.60;;;;;;5077194;28;19916;-50
2020/12/07 05:26:34;;;;;;;;;;;26.50;39.80;;;;;;5094818;28;19935;-49
2020/12/07 05:29:05;;;;;;;;;;;26.50;39.90;;;;;;5094833;28;20353;-50
2020/12/07 05:31:31;;;;;;;;;;;26.40;39.90;;;;;;5091744;28;19967;-49
2020/12/07 05:33:57;;;;;;;;;;;26.40;40.00;;;;;;5093299;28;20011;-49
2020/12/07 05:36:22;;;;;;;;;;;26.40;39.90;;;;;;5093363;28;20353;-50
2020/12/07 05:38:48;;;;;;;;;;;26.40;39.90;;;;;;5078016;28;19916;-49
2020/12/07 05:41:13;;;;;;;;;;;26.40;39.90;;;;;;5094601;28;20370;-50
2020/12/07 05:43:39;;;;;;;;;;;26.40;40.00;;;;;;5089902;28;19912;-49
2020/12/07 05:46:04;;;;;;;;;;;26.40;40.00;;;;;;5094350;28;19947;-50
2020/12/07 05:48:33;;;;;;;;;;;26.40;40.00;;;;;;5077768;28;19913;-50
2020/12/07 05:51:05;;;;;;;;;;;26.40;40.00;;;;;;5088722;28;19981;-50
2020/12/07 05:53:35;;;;;;;;;;;26.40;40.00;;;;;;5094503;28;19916;-50
2020/12/07 05:56:04;;;;;;;;;;;26.40;40.10;;;;;;5089563;28;19913;-49
2020/12/07 05:58:29;;;;;;;;;;;26.30;40.00;;;;;;5074228;28;19940;-50
2020/12/07 06:00:55;;;;;;;;;;;26.40;40.10;;;;;;5079660;28;20366;-49
2020/12/07 06:03:21;;;;;;;;;;;26.40;40.10;;;;;;5094343;28;20297;-50
2020/12/07 06:05:46;;;;;;;;;;;26.30;40.10;;;;;;5094048;28;20340;-50
2020/12/07 06:08:16;;;;;;;;;;;26.30;40.00;;;;;;5083056;28;19924;-50
2020/12/07 06:10:51;;;;;;;;;;;26.30;40.10;;;;;;5075678;28;19921;-50
2020/12/07 06:13:20;;;;;;;;;;;26.30;40.10;;;;;;5086412;28;19928;-50
2020/12/07 06:15:46;;;;;;;;;;;26.30;40.10;;;;;;5094109;28;19934;-50
2020/12/07 06:18:23;;;;;;;;;;;26.30;40.10;;;;;;5094025;28;19912;-49
2020/12/07 06:20:53;;;;;;;;;;;26.30;40.20;;;;;;5079186;28;19924;-49
2020/12/07 06:23:18;;;;;;;;;;;26.30;40.10;;;;;;5073025;28;19920;-51
2020/12/07 06:25:44;;;;;;;;;;;26.30;40.20;;;;;;5089233;28;20223;-50
2020/12/07 06:28:09;;;;;;;;;;;26.30;40.20;;;;;;5092427;28;19908;-49
2020/12/07 06:30:36;;;;;;;;;;;26.30;40.10;;;;;;5091313;28;20042;-49
2020/12/07 06:33:08;;;;;;;;;;;26.30;40.10;;;;;;5083099;28;19952;-49
2020/12/07 06:35:40;;;;;;;;;;;26.30;40.20;;;;;;5093787;28;19908;-49
2020/12/07 06:38:05;;;;;;;;;;;26.30;40.10;;;;;;5093658;28;19908;-49
2020/12/07 06:40:31;;;;;;;;;;;26.30;40.10;;;;;;5093395;28;19915;-49
2020/12/07 06:42:57;;;;;;;;;;;26.30;40.10;;;;;;5091999;28;20000;-50
2020/12/07 06:45:24;;;;;;;;;;;26.30;40.10;;;;;;5093287;28;19912;-50
2020/12/07 06:47:50;;;;;;;;;;;26.30;40.00;;;;;;5091253;28;19912;-49
2020/12/07 06:50:16;;;;;;;;;;;26.30;40.00;;;;;;5093595;28;19908;-49
2020/12/07 06:52:42;;;;;;;;;;;26.30;40.10;;;;;;5084023;28;19921;-49
2020/12/07 06:55:09;;;;;;;;;;;26.30;40.00;;;;;;5073738;28;20433;-51
2020/12/07 06:57:39;;;;;;;;;;;26.30;40.00;;;;;;5092832;28;20007;-49
2020/12/07 07:00:17;;;;;;;;;;;26.30;40.10;;;;;;5093103;28;19919;-50
2020/12/07 07:02:43;;;;;;;;;;;26.30;40.10;;;;;;5072850;28;19958;-49
2020/12/07 07:05:09;;;;;;;;;;;26.30;40.10;;;;;;5072783;28;19923;-50
2020/12/07 07:07:34;;;;;;;;;;;26.30;40.10;;;;;;5075173;28;19920;-49
2020/12/07 07:10:00;;;;;;;;;;;26.30;40.10;;;;;;5089501;28;19994;-50
2020/12/07 07:12:26;;;;;;;;;;;26.30;40.10;;;;;;5093024;28;19967;-50
2020/12/07 07:14:55;;;;;;;;;;;26.30;40.10;;;;;;5077809;28;19912;-49
2020/12/07 07:17:21;;;;;;;;;;;26.30;40.20;;;;;;5072716;28;19909;-51
2020/12/07 07:19:46;;;;;;;;;;;26.30;40.10;;;;;;5072654;28;20006;-50
2020/12/07 07:22:12;;;;;;;;;;;26.30;40.10;;;;;;5078526;28;19912;-50
2020/12/07 07:24:48;;;;;;;;;;;26.30;40.10;;;;;;5083761;28;19912;-50
2020/12/07 07:29:57;;;;;;;;;;;26.30;40.10;;;;;;5072762;28;19962;-51
2020/12/07 07:32:23;;;;;;;;;;;26.30;40.10;;;;;;5073439;28;19916;-51
2020/12/07 07:34:49;;;;;;;;;;;26.30;40.10;;;;;;5074347;28;19951;-49
2020/12/07 07:37:15;;;;;;;;;;;26.30;40.10;;;;;;5082892;28;20293;-49
2020/12/07 07:39:40;;;;;;;;;;;26.30;40.70;;;;;;5093066;28;20317;-49
2020/12/07 07:42:10;;;;;;;;;;;26.30;40.10;;;;;;5094870;28;19920;-50
2020/12/07 07:44:36;;;;;;;;;;;26.30;40.10;;;;;;5091689;28;19912;-50
2020/12/07 07:47:05;;;;;;;;;;;26.20;40.10;;;;;;5080610;28;19912;-51
2020/12/07 07:49:52;;;;;;;;;;;26.20;40.10;;;;;;5096968;28;19908;-50
2020/12/07 08:01:54;;;;;;;;;;;26.20;40.20;;;;;;5075046;28;19916;-50
2020/12/07 08:17:10;;;;;;;;;;;26.20;40.40;;;;;;5094478;28;19920;-51
2020/12/07 08:19:36;;;;;;;;;;;26.10;40.30;;;;;;5096090;28;19908;-50
2020/12/07 08:22:11;;;;;;;;;;;26.10;40.30;;;;;;5091352;28;19912;-49
2020/12/07 08:24:59;;;;;;;;;;;26.20;40.20;;;;;;5075903;28;19908;-51
2020/12/07 08:27:34;;;;;;;;;;;26.20;40.10;;;;;;5080629;28;19920;-49
2020/12/07 08:30:06;;;;;;;;;;;26.20;40.20;;;;;;5075624;28;19931;-50
2020/12/07 08:32:32;;;;;;;;;;;26.20;40.10;;;;;;5095485;28;19916;-49
2020/12/07 08:34:57;;;;;;;;;;;26.20;40.10;;;;;;5096139;28;19915;-50
2020/12/07 08:37:24;;;;;;;;;;;26.20;40.10;;;;;;5088278;28;19912;-50
2020/12/07 08:39:50;;;;;;;;;;;26.30;40.00;;;;;;5076867;28;19935;-52
2020/12/07 08:42:15;;;;;;;;;;;26.30;40.00;;;;;;5094478;28;19945;-49
2020/12/07 08:44:41;;;;;;;;;;;26.30;39.90;;;;;;5091638;28;19959;-50
2020/12/07 08:47:10;;;;;;;;;;;26.30;39.90;;;;;;5081315;28;19927;-50
2020/12/07 08:49:35;;;;;;;;;;;26.30;39.90;;;;;;5075206;28;19912;-51
2020/12/07 08:52:01;;;;;;;;;;;26.30;39.90;;;;;;5075273;28;19920;-49
2020/12/07 08:54:26;;;;;;;;;;;26.30;40.00;;;;;;5075378;28;20003;-50
2020/12/07 08:56:52;;;;;;;;;;;26.30;40.10;;;;;;5075090;28;19909;-50
2020/12/07 08:59:17;;;;;;;;;;;26.30;40.00;;;;;;5077413;28;19920;-50
2020/12/07 09:01:43;;;;;;;;;;;26.20;40.10;;;;;;5093564;28;20426;-51
2020/12/07 09:04:10;;;;;;;;;;;26.30;40.10;;;;;;5095462;28;19957;-52
2020/12/07 09:06:40;;;;;;;;;;;26.20;40.00;;;;;;5093995;28;20373;-50
2020/12/07 09:09:06;;;;;;;;;;;26.30;40.10;;;;;;5091332;28;20019;-53
2020/12/07 09:11:32;;;;;;;;;;;26.20;40.10;;;;;;5078807;28;19920;-50
2020/12/07 09:13:57;;;;;;;;;;;26.20;40.00;;;;;;5077156;28;19949;-50
2020/12/07 09:16:22;;;;;;;;;;;26.20;40.00;;;;;;5095035;28;19934;-51
2020/12/07 09:18:48;;;;;;;;;;;26.20;40.00;;;;;;5081147;28;19966;-50
2020/12/07 09:21:13;;;;;;;;;;;26.20;40.00;;;;;;5082166;28;19928;-50
2020/12/07 09:23:39;;;;;;;;;;;26.20;40.10;;;;;;5092842;28;19919;-49
2020/12/07 09:26:05;;;;;;;;;;;26.20;40.10;;;;;;5095192;28;20438;-50
2020/12/07 09:28:30;;;;;;;;;;;26.20;40.00;;;;;;5081246;28;19912;-50
2020/12/07 09:30:56;;;;;;;;;;;26.20;40.10;;;;;;5080542;28;19920;-50
2020/12/07 09:33:21;;;;;;;;;;;26.20;40.10;;;;;;5094571;28;19916;-52
2020/12/07 09:35:47;;;;;;;;;;;26.30;40.10;;;;;;5094739;28;19908;-50
2020/12/07 09:38:12;;;;;;;;;;;26.20;40.00;;;;;;5093160;28;19916;-51
2020/12/07 09:40:38;;;;;;;;;;;26.20;40.10;;;;;;5084761;28;19912;-49
2020/12/07 09:43:03;;;;;;;;;;;26.20;40.10;;;;;;5074428;28;19908;-50
2020/12/07 09:45:29;;;;;;;;;;;26.30;40.10;;;;;;5090426;28;19918;-50
2020/12/07 09:47:54;;;;;;;;;;;26.30;40.10;;;;;;5089470;28;19966;-51
2020/12/07 09:50:20;;;;;;;;;;;26.20;40.00;;;;;;5094425;28;20395;-50
2020/12/07 09:52:45;;;;;;;;;;;26.20;40.00;;;;;;5091115;28;19927;-49
2020/12/07 09:55:11;;;;;;;;;;;26.30;40.00;;;;;;5086470;28;20404;-50
2020/12/07 09:57:36;;;;;;;;;;;26.30;40.00;;;;;;5076820;28;19923;-51
2020/12/07 10:00:03;;;;;;;;;;;26.30;40.00;;;;;;5094454;28;20385;-50
2020/12/07 10:02:28;;;;;;;;;;;26.30;40.00;;;;;;5092942;28;19941;-50
2020/12/07 10:04:54;;;;;;;;;;;26.30;39.90;;;;;;5094408;28;19908;-51
2020/12/07 10:07:20;;;;;;;;;;;26.30;40.50;;;;;;5087925;28;19920;-50
2020/12/07 10:09:45;;;;;;;;;;;26.30;40.00;;;;;;5077565;28;20049;-50
2020/12/07 10:12:10;;;;;;;;;;;26.30;40.00;;;;;;5074202;28;20007;-52
2020/12/07 10:14:36;;;;;;;;;;;26.30;40.00;;;;;;5079044;28;20031;-52
2020/12/07 10:17:01;;;;;;;;;;;26.30;40.00;;;;;;5089114;28;19917;-50
2020/12/07 10:19:27;;;;;;;;;;;26.30;40.00;;;;;;5073507;28;20025;-50
2020/12/07 10:21:53;;;;;;;;;;;26.30;40.00;;;;;;5076458;28;19957;-50
2020/12/07 10:24:18;;;;;;;;;;;26.30;40.00;;;;;;5093841;28;20017;-53
2020/12/07 10:26:44;;;;;;;;;;;26.40;39.90;;;;;;5091824;28;19962;-51
2020/12/07 10:29:09;;;;;;;;;;;26.50;39.60;;;;;;5088755;28;19912;-53
2020/12/07 10:31:35;;;;;;;;;;;26.60;39.60;;;;;;5082043;28;19923;-51
2020/12/07 10:34:00;;;;;;;;;;;26.60;39.60;;;;;;5073344;28;19915;-51
2020/12/07 10:36:26;;;;;;;;;;;26.60;39.40;;;;;;5073561;28;19909;-51
2020/12/07 10:38:51;;;;;;;;;;;26.60;39.30;;;;;;5092962;28;20003;-51
2020/12/07 10:41:17;;;;;;;;;;;26.60;39.40;;;;;;5082047;28;20290;-53
2020/12/07 10:43:43;;;;;;;;;;;26.60;39.30;;;;;;5073515;28;20402;-51
2020/12/07 10:46:10;;;;;;;;;;;26.70;39.30;;;;;;5085233;28;19916;-50
2020/12/07 10:48:36;;;;;;;;;;;26.60;39.30;;;;;;5093541;28;19912;-53
2020/12/07 10:51:01;;;;;;;;;;;26.60;39.40;;;;;;5093499;28;19908;-50
2020/12/07 10:53:27;;;;;;;;;;;26.60;39.50;;;;;;5089916;28;19927;-50
2020/12/07 10:55:52;;;;;;;;;;;26.60;39.40;;;;;;5080314;28;20401;-50
2020/12/07 10:58:18;;;;;;;;;;;26.60;39.40;;;;;;5079924;28;19923;-50
2020/12/07 11:00:44;;;;;;;;;;;26.60;39.30;;;;;;5078461;28;20006;-50
2020/12/07 11:03:09;;;;;;;;;;;26.60;39.30;;;;;;5093165;28;19954;-49
2020/12/07 11:05:37;;;;;;;;;;;26.60;39.20;;;;;;5093424;28;19915;-51
2020/12/07 11:08:10;;;;;;;;;;;26.70;39.10;;;;;;5080860;28;19931;-50
2020/12/07 11:10:36;;;;;;;;;;;26.70;39.20;;;;;;5076309;28;19912;-51
2020/12/07 11:13:06;;;;;;;;;;;26.70;39.10;;;;;;5093216;28;19916;-51
2020/12/07 11:15:31;;;;;;;;;;;26.60;39.10;;;;;;5089666;28;19920;-50
2020/12/07 11:17:57;;;;;;;;;;;26.60;39.20;;;;;;5079727;28;19912;-51
2020/12/07 11:20:22;;;;;;;;;;;26.60;39.20;;;;;;5092725;28;20720;-48
2020/12/07 11:22:48;;;;;;;;;;;26.70;39.30;;;;;;5082658;28;19970;-50
2020/12/07 11:25:13;;;;;;;;;;;26.10;31.20;;;;;;5073176;28;19919;-51
2020/12/07 11:27:39;;;;;;;;;;;24.50;29.50;;;;;;5079825;28;19922;-51
2020/12/07 11:30:04;;;;;;;;;;;23.30;29.90;;;;;;5081881;28;19930;-51
2020/12/07 11:32:30;;;;;;;;;;;22.70;32.90;;;;;;5073930;28;19920;-49
2020/12/07 11:34:56;;;;;;;;;;;23.30;35.50;;;;;;5072881;28;19909;-49
2020/12/07 11:37:21;;;;;;;;;;;24.00;35.70;;;;;;5080049;28;19918;-49
2020/12/07 11:39:56;;;;;;;;;;;24.50;35.70;;;;;;5093201;28;19915;-49
2020/12/07 11:44:49;;;;;;;;;;;25.20;36.20;;;;;;5078796;28;20002;-49
2020/12/07 11:47:15;;;;;;;;;;;25.50;36.40;;;;;;5086174;28;20122;-49
2020/12/07 11:49:41;;;;;;;;;;;25.60;36.20;;;;;;5072556;28;19915;-50
2020/12/07 11:52:07;;;;;;;;;;;25.70;36.40;;;;;;5072360;28;20359;-50
2020/12/07 11:54:33;;;;;;;;;;;25.80;36.50;;;;;;5072728;28;19991;-53
2020/12/07 11:57:04;;;;;;;;;;;25.90;36.60;;;;;;5076411;28;19919;-49
2020/12/07 11:59:30;;;;;;;;;;;26.00;36.70;;;;;;5075831;28;19951;-52
2020/12/07 12:01:55;;;;;;;;;;;26.00;36.90;;;;;;5084910;28;20417;-50
2020/12/07 12:04:21;;;;;;;;;;;25.90;40.10;;;;;;5092853;28;19908;-50
2020/12/07 12:06:46;;;;;;;;;;;26.10;49.00;;;;;;5090200;28;19986;-51
2020/12/07 12:09:12;;;;;;;;;;;26.10;50.30;;;;;;5073405;28;19927;-50
2020/12/07 12:11:38;;;;;;;;;;;26.30;51.20;;;;;;5087701;28;19920;-51
2020/12/07 12:14:04;;;;;;;;;;;26.30;51.60;;;;;;5090113;28;20358;-51
2020/12/07 12:16:30;;;;;;;;;;;26.40;51.70;;;;;;5072239;28;20382;-51
2020/12/07 12:18:55;;;;;;;;;;;26.60;51.20;;;;;;5092285;28;19908;-51
2020/12/07 12:21:21;;;;;;;;;;;26.60;50.90;;;;;;5093111;28;19909;-52
2020/12/07 12:23:47;;;;;;;;;;;26.60;51.70;;;;;;5096072;28;20487;-50
2020/12/07 12:26:16;;;;;;;;;;;26.60;51.90;;;;;;5088001;28;19995;-52
2020/12/07 12:28:41;;;;;;;;;;;26.60;52.20;;;;;;5087906;28;20362;-51
2020/12/07 12:31:07;;;;;;;;;;;26.60;52.20;;;;;;5091602;28;20046;-52
2020/12/07 12:33:32;;;;;;;;;;;26.60;52.10;;;;;;5075786;28;19916;-52
2020/12/07 12:35:58;;;;;;;;;;;26.70;51.70;;;;;;5075986;28;19909;-51
2020/12/07 12:38:23;;;;;;;;;;;26.70;51.90;;;;;;5078595;28;19912;-48
2020/12/07 12:40:49;;;;;;;;;;;26.80;51.40;;;;;;5084153;28;20289;-52
2020/12/07 12:43:14;;;;;;;;;;;26.90;50.70;;;;;;5095800;28;19912;-51
2020/12/07 12:45:40;;;;;;;;;;;27.00;50.50;;;;;;5080921;28;19917;-51
2020/12/07 12:48:05;;;;;;;;;;;27.10;50.30;;;;;;5076620;28;19955;-51
2020/12/07 12:50:31;;;;;;;;;;;27.10;50.30;;;;;;5075729;28;19999;-52
2020/12/07 12:52:56;;;;;;;;;;;27.10;50.10;;;;;;5077023;28;20367;-51
2020/12/07 12:55:22;;;;;;;;;;;27.10;50.20;;;;;;5076546;28;19908;-52
2020/12/07 12:57:47;;;;;;;;;;;27.10;50.50;;;;;;5077152;28;20384;-52
2020/12/07 13:00:13;;;;;;;;;;;27.10;50.10;;;;;;5075738;28;19909;-51
2020/12/07 13:02:38;;;;;;;;;;;27.10;50.20;;;;;;5089927;28;19970;-52
2020/12/07 13:05:03;;;;;;;;;;;27.10;49.80;;;;;;5095540;28;19912;-52
2020/12/07 13:07:29;;;;;;;;;;;27.20;50.00;;;;;;5093794;28;20363;-54
2020/12/07 13:09:54;;;;;;;;;;;27.10;49.90;;;;;;5095417;28;19915;-50
2020/12/07 13:12:20;;;;;;;;;;;27.10;50.00;;;;;;5075819;28;19970;-52
2020/12/07 13:14:45;;;;;;;;;;;27.10;49.60;;;;;;5075036;28;19920;-53
2020/12/07 13:17:17;;;;;;;;;;;27.10;49.60;;;;;;5080848;28;20002;-51
2020/12/07 13:19:43;;;;;;;;;;;27.10;49.70;;;;;;5095168;28;19908;-50
2020/12/07 13:22:36;;;;;;;;;;;27.10;49.70;;;;;;5089605;28;19923;-53
2020/12/07 13:25:08;;;;;;;;;;;27.10;49.70;;;;;;5075047;28;19909;-51
2020/12/07 13:30:09;;;;;;;;;;;27.10;49.10;;;;;;5074832;28;20362;-51
2020/12/07 13:32:34;;;;;;;;;;;27.10;49.00;;;;;;5092506;28;19920;-51
2020/12/07 13:35:01;;;;;;;;;;;27.10;48.90;;;;;;5094887;28;19908;-51
2020/12/07 13:37:27;;;;;;;;;;;27.10;48.90;;;;;;5086675;28;19913;-50
2020/12/07 13:39:52;;;;;;;;;;;27.10;48.90;;;;;;5074754;28;20293;-51
2020/12/07 13:42:18;;;;;;;;;;;27.10;48.70;;;;;;5093514;28;19912;-50
2020/12/07 13:44:44;;;;;;;;;;;27.00;48.70;;;;;;5089613;28;20005;-52
2020/12/07 13:47:10;;;;;;;;;;;27.10;48.70;;;;;;5079539;28;19951;-50
2020/12/07 13:49:36;;;;;;;;;;;27.10;48.50;;;;;;5094749;28;19908;-50
2020/12/07 13:52:01;;;;;;;;;;;27.10;48.50;;;;;;5092848;28;20358;-52
2020/12/07 13:54:27;;;;;;;;;;;27.10;48.40;;;;;;5094331;28;19912;-51
2020/12/07 13:56:52;;;;;;;;;;;27.10;48.40;;;;;;5085473;28;19912;-53
2020/12/07 13:59:18;;;;;;;;;;;27.10;48.30;;;;;;5090955;28;20263;-51
2020/12/07 14:01:43;;;;;;;;;;;27.10;48.30;;;;;;5081364;28;19912;-51
2020/12/07 14:04:32;;;;;;;;;;;27.10;48.20;;;;;;5073811;28;19958;-52
2020/12/07 14:06:57;;;;;;;;;;;27.10;48.20;;;;;;5076526;28;19916;-52
2020/12/07 14:09:23;;;;;;;;;;;27.10;48.10;;;;;;5093531;28;19916;-53
2020/12/07 14:11:48;;;;;;;;;;;27.10;48.00;;;;;;5092657;28;19927;-51
2020/12/07 14:14:14;;;;;;;;;;;27.00;47.90;;;;;;5094317;28;19908;-52
2020/12/07 14:16:40;;;;;;;;;;;27.00;47.90;;;;;;5076376;28;20427;-51
2020/12/07 14:19:14;;;;;;;;;;;27.00;47.70;;;;;;5094136;28;19908;-51
2020/12/07 14:22:36;;;;;;;;;;;27.10;47.80;;;;;;5092473;28;19919;-50
2020/12/07 14:25:20;;;;;;;;;;;27.00;47.50;;;;;;5066108;28;20421;-51
2020/12/07 14:40:42;;;;;;;;;;;26.90;47.60;;;;;;5077762;28;19919;-50
2020/12/07 14:43:07;;;;;;;;;;;26.90;47.50;;;;;;5093730;28;19912;-53
2020/12/07 14:45:44;;;;;;;;;;;26.90;47.30;;;;;;5092662;28;19908;-51
2020/12/07 14:48:11;;;;;;;;;;;26.90;47.20;;;;;;5079267;28;19912;-51
2020/12/07 14:53:17;;;;;;;;;;;27.00;47.10;;;;;;5079863;28;20019;-51
2020/12/07 14:55:50;;;;;;;;;;;26.90;47.00;;;;;;5073427;28;19918;-51
2020/12/07 15:05:50;;;;;;;;;;;26.90;46.50;;;;;;5093254;28;19908;-51